Time;durP1;ratioP1;P1;durP2;ratioP2;P2;SDS_P1;SDS_P2;PMS_P1;PMS_P2;Temp;Humidity;BMP_temperature;BMP_pressure;BME280_temperature;BME280_humidity;BME280_pressure;Samples;Min_cycle;Max_cycle;Signal;HPM_P1;HPM_P2
2021/10/19 00:00:10;;;;;;;16.65;13.18;;;;;;;13.29;90.37;101930.66;5094343;28;20475;-76
2021/10/19 00:02:36;;;;;;;18.58;12.88;;;;;;;13.29;90.77;101918.13;5093631;28;20092;-77
2021/10/19 00:05:05;;;;;;;20.60;13.10;;;;;;;13.32;90.48;101919.69;5094183;28;20040;-77
2021/10/19 00:07:31;;;;;;;16.38;12.07;;;;;;;13.35;90.50;101919.47;5093401;28;20035;-76
2021/10/19 00:09:56;;;;;;;17.45;12.15;;;;;;;13.35;90.66;101922.97;5076014;28;20024;-77
2021/10/19 00:12:21;;;;;;;18.17;11.32;;;;;;;13.37;91.08;101925.50;5093521;28;20028;-79
2021/10/19 00:14:47;;;;;;;15.43;10.95;;;;;;;13.40;90.99;101927.91;5093831;28;20032;-77
2021/10/19 00:17:12;;;;;;;13.90;10.25;;;;;;;13.43;91.10;101919.63;5094027;28;20035;-77
2021/10/19 00:19:38;;;;;;;15.13;10.35;;;;;;;13.44;90.99;101915.16;5093301;28;20103;-77
2021/10/19 00:22:04;;;;;;;14.30;9.93;;;;;;;13.47;91.08;101915.72;5094101;28;20032;-77
2021/10/19 00:24:30;;;;;;;20.88;10.85;;;;;;;13.49;91.69;101907.56;5093285;28;20032;-77
2021/10/19 00:26:55;;;;;;;15.23;10.52;;;;;;;13.47;92.44;101904.19;5093806;28;20074;-77
2021/10/19 00:29:20;;;;;;;13.52;10.35;;;;;;;13.42;92.71;101906.41;5093869;28;20031;-77
2021/10/19 00:31:46;;;;;;;17.88;11.50;;;;;;;13.36;94.05;101897.94;5093201;28;20079;-76
2021/10/19 00:34:11;;;;;;;16.00;11.43;;;;;;;13.28;94.54;101900.38;5093786;28;20039;-76
2021/10/19 00:36:36;;;;;;;19.42;12.30;;;;;;;13.22;95.46;101906.25;5093439;28;20114;-76
2021/10/19 00:39:03;;;;;;;14.45;11.82;;;;;;;13.16;96.46;101907.63;5093670;28;20024;-76
2021/10/19 00:41:29;;;;;;;19.50;13.30;;;;;;;13.13;97.21;101897.19;5092704;28;20020;-76
2021/10/19 00:43:54;;;;;;;21.33;14.02;;;;;;;13.10;97.58;101901.94;5093209;28;20475;-75
2021/10/19 00:46:20;;;;;;;22.02;14.38;;;;;;;13.06;97.83;101896.00;5093470;28;20031;-75
2021/10/19 00:48:46;;;;;;;28.13;14.82;;;;;;;13.02;98.53;101897.25;5074766;28;20523;-75
2021/10/19 00:51:13;;;;;;;21.60;14.98;;;;;;;12.98;98.73;101885.97;5075420;28;20074;-75
2021/10/19 00:53:39;;;;;;;25.17;14.60;;;;;;;12.96;99.19;101885.25;5092796;28;20032;-75
2021/10/19 00:56:09;;;;;;;21.85;14.98;;;;;;;12.95;99.83;101880.88;5093226;28;20120;-75
2021/10/19 00:58:38;;;;;;;24.73;16.40;;;;;;;12.92;99.99;101877.66;5093023;28;20460;-75
2021/10/19 01:01:04;;;;;;;30.88;17.63;;;;;;;12.92;100.00;101872.31;5093207;28;20028;-73
2021/10/19 01:03:30;;;;;;;23.30;15.93;;;;;;;12.91;100.00;101867.94;5092245;28;20130;-73
2021/10/19 01:05:55;;;;;;;27.83;17.48;;;;;;;12.91;100.00;101860.75;5093099;28;20036;-73
2021/10/19 01:08:21;;;;;;;28.67;17.33;;;;;;;12.90;100.00;101860.88;5092679;28;20048;-75
2021/10/19 01:10:47;;;;;;;26.20;17.67;;;;;;;12.89;100.00;101857.38;5092591;28;20039;-75
2021/10/19 01:13:12;;;;;;;26.15;18.05;;;;;;;12.91;100.00;101857.25;5092929;28;20023;-75
2021/10/19 01:15:38;;;;;;;30.92;18.45;;;;;;;12.88;100.00;101851.19;5092230;28;20459;-75
2021/10/19 01:18:03;;;;;;;31.73;20.33;;;;;;;12.87;100.00;101854.00;5092939;28;20028;-74
2021/10/19 01:20:35;;;;;;;33.40;21.45;;;;;;;12.86;100.00;101849.63;5092984;28;20372;-74
2021/10/19 01:23:02;;;;;;;30.88;20.02;;;;;;;12.86;100.00;101837.09;5092816;28;20367;-74
2021/10/19 01:25:29;;;;;;;34.85;21.05;;;;;;;12.87;100.00;101843.31;5074828;28;20176;-74
2021/10/19 01:27:58;;;;;;;35.88;21.85;;;;;;;12.85;100.00;101837.22;5092503;28;20035;-74
2021/10/19 01:30:24;;;;;;;40.40;23.00;;;;;;;12.84;100.00;101832.88;5092401;28;20048;-74
2021/10/19 01:32:50;;;;;;;37.42;22.40;;;;;;;12.83;100.00;101832.03;5092025;28;20028;-75
2021/10/19 01:35:15;;;;;;;41.58;24.00;;;;;;;12.82;100.00;101827.69;5092319;28;20024;-75
2021/10/19 01:37:42;;;;;;;43.55;24.92;;;;;;;12.81;100.00;101828.66;5091740;28;20111;-75
2021/10/19 01:40:10;;;;;;;40.92;24.30;;;;;;;12.82;100.00;101833.03;5092578;28;20020;-75
2021/10/19 01:42:36;;;;;;;39.53;24.00;;;;;;;12.82;100.00;101835.69;5095260;28;20023;-76
2021/10/19 01:45:02;;;;;;;39.17;23.98;;;;;;;12.82;100.00;101825.00;5099510;28;20144;-74
2021/10/19 01:47:28;;;;;;;45.25;24.60;;;;;;;12.82;100.00;101829.47;5099325;28;20035;-75
2021/10/19 01:49:54;;;;;;;41.72;24.45;;;;;;;12.82;100.00;101821.47;5080648;28;20226;-75
2021/10/19 01:52:20;;;;;;;42.78;24.42;;;;;;;12.81;100.00;101820.63;5099049;28;20028;-75
2021/10/19 01:54:45;;;;;;;45.38;24.58;;;;;;;12.83;100.00;101823.16;5098646;28;20020;-75
2021/10/19 01:57:10;;;;;;;43.45;25.52;;;;;;;12.82;100.00;101811.66;5099036;28;20027;-75
2021/10/19 01:59:36;;;;;;;45.70;26.63;;;;;;;12.83;100.00;101807.16;5098961;28;20076;-76
2021/10/19 02:02:01;;;;;;;41.72;24.52;;;;;;;12.87;100.00;101800.56;5098957;28;20024;-75
2021/10/19 02:04:27;;;;;;;39.13;24.30;;;;;;;12.91;100.00;101793.13;5098936;28;20448;-75
2021/10/19 02:06:52;;;;;;;41.03;24.40;;;;;;;12.93;100.00;101792.03;5098287;28;20455;-74
2021/10/19 02:09:17;;;;;;;39.30;26.00;;;;;;;12.95;100.00;101806.09;5099271;28;20035;-75
2021/10/19 02:11:43;;;;;;;40.83;26.08;;;;;;;12.98;100.00;101805.84;5098792;28;20121;-75
2021/10/19 02:14:08;;;;;;;39.13;25.73;;;;;;;12.96;100.00;101799.78;5099200;28;20043;-75
2021/10/19 02:16:33;;;;;;;42.90;27.75;;;;;;;12.99;100.00;101799.53;5098845;28;20473;-75
2021/10/19 02:18:59;;;;;;;44.67;26.52;;;;;;;13.02;100.00;101799.25;5080452;28;20043;-75
2021/10/19 02:21:24;;;;;;;42.25;27.35;;;;;;;13.07;100.00;101798.03;5099041;28;20023;-75
2021/10/19 02:23:49;;;;;;;42.20;26.27;;;;;;;13.06;100.00;101789.13;5098408;28;20081;-74
2021/10/19 02:26:15;;;;;;;41.22;25.25;;;;;;;13.04;100.00;101789.28;5098792;28;20028;-75
2021/10/19 02:28:40;;;;;;;46.00;27.85;;;;;;;13.07;100.00;101795.34;5098371;28;20032;-75
2021/10/19 02:31:06;;;;;;;47.63;28.17;;;;;;;13.09;100.00;101793.38;5098911;28;20485;-75
2021/10/19 02:33:32;;;;;;;44.42;29.38;;;;;;;13.10;100.00;101797.75;5098659;28;20055;-75
2021/10/19 02:35:57;;;;;;;45.50;28.27;;;;;;;13.10;100.00;101790.56;5097923;28;20024;-75
2021/10/19 02:38:23;;;;;;;49.08;30.65;;;;;;;13.09;100.00;101793.38;5098940;28;20513;-75
2021/10/19 02:40:48;;;;;;;45.42;30.25;;;;;;;13.14;100.00;101792.00;5097930;28;20188;-77
2021/10/19 02:43:15;;;;;;;43.17;28.73;;;;;;;13.13;100.00;101782.28;5098670;28;20073;-77
2021/10/19 02:45:40;;;;;;;47.08;29.63;;;;;;;13.14;100.00;101777.81;5098743;28;20032;-76
2021/10/19 02:48:05;;;;;;;44.53;29.10;;;;;;;13.14;100.00;101775.97;5098434;28;20035;-76
2021/10/19 02:50:31;;;;;;;48.28;30.17;;;;;;;13.16;100.00;101766.00;5098558;28;20059;-78
2021/10/19 02:52:56;;;;;;;40.70;29.55;;;;;;;13.17;100.00;101761.50;5098035;28;20483;-76
2021/10/19 02:55:21;;;;;;;49.10;30.15;;;;;;;13.16;100.00;101741.09;5077425;28;20028;-76
2021/10/19 02:57:47;;;;;;;38.63;29.00;;;;;;;13.17;100.00;101738.31;5094603;28;20062;-76
2021/10/19 03:00:13;;;;;;;45.55;29.77;;;;;;;13.18;100.00;101744.47;5095174;28;20036;-76
2021/10/19 03:02:38;;;;;;;43.20;29.85;;;;;;;13.19;100.00;101741.66;5095633;28;20031;-75
2021/10/19 03:05:04;;;;;;;42.05;29.30;;;;;;;13.21;100.00;101742.41;5094667;28;20344;-77
2021/10/19 03:07:29;;;;;;;43.95;29.48;;;;;;;13.23;100.00;101739.59;5095433;28;20076;-74
2021/10/19 03:09:55;;;;;;;44.22;29.90;;;;;;;13.21;100.00;101736.19;5094821;28;20039;-77
2021/10/19 03:12:20;;;;;;;45.92;29.98;;;;;;;13.21;100.00;101737.06;5095521;28;20028;-77
2021/10/19 03:14:46;;;;;;;45.22;30.40;;;;;;;13.19;100.00;101736.31;5095379;28;20032;-81
2021/10/19 03:17:11;;;;;;;46.95;30.35;;;;;;;13.19;100.00;101730.16;5076810;28;20471;-77
2021/10/19 03:19:37;;;;;;;47.70;31.90;;;;;;;13.18;100.00;101726.63;5095140;28;20032;-74
2021/10/19 03:22:02;;;;;;;49.17;31.85;;;;;;;13.17;100.00;101729.44;5094407;28;20039;-75
2021/10/19 03:24:28;;;;;;;51.20;31.10;;;;;;;13.16;100.00;101731.25;5095095;28;20030;-75
2021/10/19 03:26:53;;;;;;;54.50;31.33;;;;;;;13.17;100.00;101732.13;5094439;28;20024;-76
2021/10/19 03:29:19;;;;;;;46.10;29.42;;;;;;;13.20;100.00;101740.69;5095069;28;20047;-75
2021/10/19 03:31:45;;;;;;;43.45;28.30;;;;;;;13.23;100.00;101740.44;5094912;28;20063;-76
2021/10/19 03:34:10;;;;;;;42.47;28.52;;;;;;;13.25;100.00;101744.81;5094113;28;20024;-76
2021/10/19 03:36:36;;;;;;;47.55;29.98;;;;;;;13.26;100.00;101743.84;5094884;28;20020;-76
2021/10/19 03:39:01;;;;;;;38.80;26.77;;;;;;;13.32;100.00;101751.31;5094128;28;20424;-76
2021/10/19 03:41:27;;;;;;;43.08;28.50;;;;;;;13.32;100.00;101746.81;5094925;28;20027;-76
2021/10/19 03:43:52;;;;;;;39.92;27.40;;;;;;;13.29;100.00;101746.22;5094055;28;20418;-76
2021/10/19 03:46:17;;;;;;;39.38;26.88;;;;;;;13.28;100.00;101747.22;5094843;28;20112;-76
2021/10/19 03:48:43;;;;;;;40.83;26.30;;;;;;;13.26;100.00;101750.00;5094625;28;20028;-77
2021/10/19 03:51:08;;;;;;;41.28;27.73;;;;;;;13.26;100.00;101747.34;5093591;28;20059;-76
2021/10/19 03:53:33;;;;;;;41.75;26.80;;;;;;;13.25;100.00;101753.66;5094274;28;20020;-76
2021/10/19 03:55:59;;;;;;;46.65;29.15;;;;;;;13.25;100.00;101750.97;5075701;28;20089;-77
2021/10/19 03:58:24;;;;;;;47.65;28.27;;;;;;;13.25;100.00;101740.28;5094038;28;20107;-78
2021/10/19 04:00:49;;;;;;;41.42;26.67;;;;;;;13.25;100.00;101737.63;5094351;28;20110;-78
2021/10/19 04:03:15;;;;;;;41.70;26.35;;;;;;;13.25;100.00;101745.63;5075646;28;20452;-79
2021/10/19 04:05:41;;;;;;;40.63;26.48;;;;;;;13.25;100.00;101742.97;5093708;28;20379;-78
2021/10/19 04:08:07;;;;;;;46.60;27.70;;;;;;;13.24;100.00;101746.59;5093659;28;20073;-78
2021/10/19 04:10:32;;;;;;;44.95;26.83;;;;;;;13.26;100.00;101747.34;5094614;28;20020;-79
2021/10/19 04:12:58;;;;;;;42.55;25.90;;;;;;;13.27;100.00;101740.16;5093578;28;20463;-79
2021/10/19 04:15:23;;;;;;;45.05;26.25;;;;;;;13.29;100.00;101738.22;5093928;28;20028;-78
2021/10/19 04:17:48;;;;;;;39.55;25.20;;;;;;;13.27;100.00;101738.34;5094154;28;20105;-79
2021/10/19 04:20:14;;;;;;;40.33;24.90;;;;;;;13.27;100.00;101737.47;5093456;28;20273;-79
2021/10/19 04:22:39;;;;;;;44.92;26.40;;;;;;;13.30;100.00;101745.22;5093791;28;20024;-80
2021/10/19 04:25:06;;;;;;;49.00;25.55;;;;;;;13.28;100.00;101742.69;5093122;28;20055;-80
2021/10/19 04:27:32;;;;;;;38.42;23.75;;;;;;;13.30;100.00;101753.25;5075651;28;20359;-80
2021/10/19 04:29:58;;;;;;;37.22;23.38;;;;;;;13.30;100.00;101753.25;5092985;28;20032;-80
2021/10/19 04:32:23;;;;;;;42.67;24.65;;;;;;;13.29;100.00;101748.91;5093883;28;20372;-79
2021/10/19 04:34:50;;;;;;;38.38;23.02;;;;;;;13.29;100.00;101748.91;5075265;28;20073;-78
2021/10/19 04:37:16;;;;;;;40.22;23.90;;;;;;;13.32;100.00;101740.63;5092687;28;20031;-81
2021/10/19 04:39:41;;;;;;;40.72;23.77;;;;;;;13.31;100.00;101742.44;5093743;28;20093;-81
2021/10/19 04:42:06;;;;;;;36.50;22.55;;;;;;;13.31;100.00;101734.41;5092971;28;20067;-78
2021/10/19 04:44:32;;;;;;;38.72;22.27;;;;;;;13.31;100.00;101739.75;5093269;28;20032;-79
2021/10/19 04:46:58;;;;;;;39.20;23.15;;;;;;;13.33;100.00;101732.47;5093440;28;20046;-79
2021/10/19 04:49:23;;;;;;;42.53;23.60;;;;;;;13.32;100.00;101733.44;5092793;28;20027;-80
2021/10/19 04:51:49;;;;;;;41.42;23.30;;;;;;;13.33;100.00;101718.22;5093092;28;20452;-80
2021/10/19 04:54:14;;;;;;;49.05;25.20;;;;;;;13.32;100.00;101720.06;5092668;28;20464;-81
2021/10/19 04:56:40;;;;;;;50.83;26.45;;;;;;;13.36;100.00;101716.19;5093402;28;20050;-79
2021/10/19 04:59:05;;;;;;;48.70;26.23;;;;;;;13.36;100.00;101710.84;5092780;28;20024;-79
2021/10/19 05:01:31;;;;;;;48.72;26.80;;;;;;;13.37;100.00;101704.50;5093416;28;20050;-80
2021/10/19 05:03:56;;;;;;;46.75;26.55;;;;;;;13.39;100.00;101709.69;5093091;28;20027;-80
2021/10/19 05:06:21;;;;;;;59.20;29.45;;;;;;;13.40;100.00;101706.06;5092429;28;20047;-80
2021/10/19 05:08:47;;;;;;;57.00;28.90;;;;;;;13.39;100.00;101702.53;5093211;28;20024;-78
2021/10/19 05:11:12;;;;;;;60.22;29.60;;;;;;;13.42;100.00;101708.59;5092521;28;20028;-78
2021/10/19 05:13:38;;;;;;;55.22;29.23;;;;;;;13.45;100.00;101711.84;5075007;28;20036;-79
2021/10/19 05:16:03;;;;;;;52.05;26.90;;;;;;;13.45;100.00;101698.50;5074340;28;20436;-80
2021/10/19 05:18:29;;;;;;;60.05;28.38;;;;;;;13.44;100.00;101710.16;5092330;28;20487;-79
2021/10/19 05:20:54;;;;;;;63.38;30.27;;;;;;;13.45;100.00;101702.97;5092979;28;20032;-79
2021/10/19 05:23:20;;;;;;;64.43;30.25;;;;;;;13.45;100.00;101698.50;5092465;28;20028;-80
2021/10/19 05:25:45;;;;;;;69.47;30.70;;;;;;;13.46;100.00;101702.84;5093008;28;20077;-78
2021/10/19 05:28:11;;;;;;;67.75;32.17;;;;;;;13.46;100.00;101699.31;5092027;28;20026;-79
2021/10/19 05:30:36;;;;;;;64.38;30.88;;;;;;;13.48;100.00;101687.53;5092760;28;20040;-78
2021/10/19 05:33:05;;;;;;;66.72;32.03;;;;;;;13.53;100.00;101695.13;5093045;28;20051;-78
2021/10/19 05:35:31;;;;;;;78.57;35.22;;;;;;;13.53;100.00;101703.97;5075226;28;20119;-79
2021/10/19 05:37:57;;;;;;;67.97;32.95;;;;;;;13.55;100.00;101709.19;5092882;28;20051;-77
2021/10/19 05:40:23;;;;;;;74.30;34.17;;;;;;;13.57;100.00;101707.25;5092291;28;20024;-80
2021/10/19 05:42:49;;;;;;;74.82;34.10;;;;;;;13.57;100.00;101709.91;5075031;28;20028;-78
2021/10/19 05:45:15;;;;;;;76.93;36.05;;;;;;;13.58;100.00;101704.44;5092165;28;20448;-78
2021/10/19 05:47:45;;;;;;;62.00;32.67;;;;;;;13.64;100.00;101707.53;5092662;28;20072;-77
2021/10/19 05:50:11;;;;;;;79.22;33.92;;;;;;;13.63;100.00;101706.69;5092151;28;20032;-78
2021/10/19 05:52:37;;;;;;;64.03;32.05;;;;;;;13.63;100.00;101708.50;5092741;28;20027;-79
2021/10/19 05:55:02;;;;;;;66.85;32.35;;;;;;;13.65;100.00;101711.91;5092309;28;20479;-77
2021/10/19 05:57:28;;;;;;;66.72;32.00;;;;;;;13.69;100.00;101703.47;5091969;28;20243;-79
2021/10/19 05:59:53;;;;;;;59.83;29.98;;;;;;;13.71;100.00;101688.09;5092980;28;20464;-79
2021/10/19 06:02:18;;;;;;;64.57;31.48;;;;;;;13.70;100.00;101685.56;5093664;28;20028;-79
2021/10/19 06:04:44;;;;;;;64.60;31.60;;;;;;;13.72;100.00;101692.47;5058047;28;20038;-79
2021/10/19 06:07:10;;;;;;;59.72;29.67;;;;;;;13.71;100.00;101688.09;5092529;28;20121;-78
2021/10/19 06:09:36;;;;;;;60.50;30.30;;;;;;;13.75;100.00;101699.38;5092582;28;20120;-79
2021/10/19 06:12:01;;;;;;;61.50;29.52;;;;;;;13.74;100.00;101692.34;5074533;28;20024;-80
2021/10/19 06:14:27;;;;;;;58.35;30.67;;;;;;;13.72;100.00;101697.81;5091276;28;20368;-79
2021/10/19 06:16:52;;;;;;;62.17;32.22;;;;;;;13.72;100.00;101700.50;5092402;28;20345;-78
2021/10/19 06:19:18;;;;;;;68.55;33.20;;;;;;;13.73;100.00;101698.66;5091752;28;20376;-78
2021/10/19 06:21:44;;;;;;;71.32;32.30;;;;;;;13.75;100.00;101702.91;5092419;28;20023;-79
2021/10/19 06:24:10;;;;;;;63.95;30.90;;;;;;;13.75;100.00;101697.53;5092389;28;20054;-78
2021/10/19 06:26:36;;;;;;;64.88;32.03;;;;;;;13.77;100.00;101696.56;5091546;28;20474;-78
2021/10/19 06:29:07;;;;;;;70.28;33.03;;;;;;;13.77;100.00;101696.56;5094146;28;20032;-78
2021/10/19 06:31:34;;;;;;;66.80;32.60;;;;;;;13.78;100.00;101695.56;5095612;28;20652;-78
2021/10/19 06:34:00;;;;;;;67.75;32.10;;;;;;;13.78;100.00;101692.88;5096057;28;20027;-79
2021/10/19 06:36:26;;;;;;;76.47;34.05;;;;;;;13.79;100.00;101686.56;5095487;28;20119;-79
2021/10/19 06:38:52;;;;;;;66.80;31.65;;;;;;;13.81;100.00;101689.94;5077567;28;20429;-78
2021/10/19 06:41:17;;;;;;;63.20;30.05;;;;;;;13.79;100.00;101691.91;5094967;28;20028;-79
2021/10/19 06:43:42;;;;;;;67.05;31.02;;;;;;;13.81;100.00;101698.81;5095588;28;20028;-76
2021/10/19 06:46:08;;;;;;;66.10;29.45;;;;;;;13.86;100.00;101709.94;5095499;28;20031;-77
2021/10/19 06:48:34;;;;;;;58.00;26.83;;;;;;;13.87;100.00;101705.47;5095091;28;20031;-79
2021/10/19 06:50:59;;;;;;;57.95;27.10;;;;;;;13.89;100.00;101708.81;5095264;28;20035;-77
2021/10/19 06:53:25;;;;;;;60.05;27.20;;;;;;;13.92;100.00;101708.53;5094663;28;20073;-78
2021/10/19 06:55:50;;;;;;;48.35;24.02;;;;;;;13.92;100.00;101709.38;5095372;28;20020;-78
2021/10/19 06:58:15;;;;;;;47.15;25.15;;;;;;;13.97;100.00;101716.16;5095288;28;20028;-79
2021/10/19 07:00:41;;;;;;;43.05;22.75;;;;;;;14.00;100.00;101721.22;5076831;28;20145;-79
2021/10/19 07:03:07;;;;;;;42.65;23.45;;;;;;;14.02;100.00;101716.59;5095747;28;20360;-79
2021/10/19 07:05:32;;;;;;;48.75;24.65;;;;;;;14.04;100.00;101712.75;5076548;28;20474;-79
2021/10/19 07:07:57;;;;;;;47.00;23.40;;;;;;;14.05;100.00;101708.28;5095516;28;20031;-79
2021/10/19 07:10:23;;;;;;;52.20;24.83;;;;;;;14.03;100.00;101700.38;5094465;28;20024;-79
2021/10/19 07:12:49;;;;;;;53.80;25.55;;;;;;;14.05;100.00;101702.94;5095222;28;20380;-80
2021/10/19 07:15:15;;;;;;;46.30;23.33;;;;;;;14.05;100.00;101702.94;5094897;28;20069;-79
2021/10/19 07:17:41;;;;;;;51.75;23.67;;;;;;;14.06;100.00;101707.28;5094644;28;20039;-78
2021/10/19 07:20:08;;;;;;;48.33;23.30;;;;;;;14.07;100.00;101703.63;5076955;28;20035;-78
2021/10/19 07:22:35;;;;;;;44.92;23.40;;;;;;;14.15;100.00;101708.25;5094460;28;20062;-78
2021/10/19 07:25:01;;;;;;;48.45;23.88;;;;;;;14.20;100.00;101714.06;5095139;28;20040;-78
2021/10/19 07:27:27;;;;;;;48.38;22.60;;;;;;;14.19;100.00;101709.66;5076386;28;20028;-77
2021/10/19 07:29:53;;;;;;;50.25;22.92;;;;;;;14.19;100.00;101709.66;5094728;28;20027;-77
2021/10/19 07:32:19;;;;;;;49.40;23.50;;;;;;;14.21;100.00;101707.69;5094915;28;20032;-77
2021/10/19 07:34:45;;;;;;;43.47;21.30;;;;;;;14.23;100.00;101703.88;5094279;28;20451;-77
2021/10/19 07:37:10;;;;;;;51.78;22.10;;;;;;;14.26;100.00;101708.13;5094459;28;20036;-77
2021/10/19 07:39:35;;;;;;;35.90;18.70;;;;;;;14.30;100.00;101712.19;5093464;28;20026;-78
2021/10/19 07:42:01;;;;;;;37.25;19.88;;;;;;;14.35;100.00;101715.28;5094697;28;20505;-77
2021/10/19 07:44:26;;;;;;;39.40;19.83;;;;;;;14.37;100.00;101705.28;5094506;28;20413;-77
2021/10/19 07:46:52;;;;;;;38.92;19.02;;;;;;;14.38;100.00;101701.63;5094635;28;20432;-75
2021/10/19 07:49:19;;;;;;;35.75;18.88;;;;;;;14.40;100.00;101705.00;5076374;28;20024;-77
2021/10/19 07:51:45;;;;;;;35.83;17.98;;;;;;;14.42;100.00;101703.03;5094063;28;20070;-77
2021/10/19 07:54:11;;;;;;;33.83;17.35;;;;;;;14.45;100.00;101704.56;5076534;28;20028;-77
2021/10/19 07:56:38;;;;;;;33.95;17.50;;;;;;;14.45;100.00;101697.38;5093969;28;20466;-77
2021/10/19 07:59:05;;;;;;;28.63;16.60;;;;;;;14.47;100.00;101705.28;5076207;28;20039;-78
2021/10/19 08:01:34;;;;;;;29.23;15.68;;;;;;;14.47;100.00;101705.28;5094085;28;20028;-79
2021/10/19 08:04:00;;;;;;;27.55;15.48;;;;;;;14.48;100.00;101700.75;5094351;28;20169;-77
2021/10/19 08:06:25;;;;;;;30.25;16.27;;;;;;;14.48;100.00;101701.63;5094214;28;20458;-78
2021/10/19 08:08:51;;;;;;;30.23;16.40;;;;;;;14.49;100.00;101705.97;5093822;28;20354;-77
2021/10/19 08:11:16;;;;;;;31.45;16.73;;;;;;;14.49;100.00;101692.56;5075985;28;20452;-78
2021/10/19 08:13:42;;;;;;;31.23;16.58;;;;;;;14.52;100.00;101697.66;5093523;28;20027;-77
2021/10/19 08:16:07;;;;;;;32.42;16.98;;;;;;;14.52;100.00;101700.31;5093583;28;20444;-77
2021/10/19 08:18:32;;;;;;;36.92;18.80;;;;;;;14.53;100.00;101695.84;5093091;28;20028;-75
2021/10/19 08:20:58;;;;;;;33.90;17.85;;;;;;;14.54;100.00;101697.50;5093956;28;20026;-75
2021/10/19 08:23:23;;;;;;;35.90;18.15;;;;;;;14.56;100.00;101698.22;5093927;28;20055;-76
2021/10/19 08:25:49;;;;;;;37.95;20.02;;;;;;;14.57;100.00;101691.84;5093243;28;20185;-77
2021/10/19 08:28:21;;;;;;;35.30;18.77;;;;;;;14.59;100.00;101682.69;5093845;28;20028;-76
2021/10/19 08:30:48;;;;;;;37.42;19.05;;;;;;;14.63;100.00;101702.88;5092809;28;20086;-75
2021/10/19 08:33:14;;;;;;;35.90;19.15;;;;;;;14.66;100.00;101698.22;5075575;28;20059;-76
2021/10/19 08:35:39;;;;;;;37.47;18.92;;;;;;;14.65;100.00;101699.22;5093301;28;20063;-77
2021/10/19 08:38:05;;;;;;;34.10;18.75;;;;;;;14.67;100.00;101692.72;5075376;28;20108;-76
2021/10/19 08:40:31;;;;;;;32.63;18.70;;;;;;;14.69;100.00;101685.38;5093963;28;20024;-76
2021/10/19 08:42:57;;;;;;;41.28;19.42;;;;;;;14.71;100.00;101690.59;5093505;28;20092;-77
2021/10/19 08:45:23;;;;;;;32.55;18.58;;;;;;;14.74;100.00;101688.47;5093509;28;20444;-76
2021/10/19 08:47:50;;;;;;;31.98;17.92;;;;;;;14.79;100.00;101696.94;5074831;28;20455;-75
2021/10/19 08:50:20;;;;;;;32.80;17.80;;;;;;;14.80;100.00;101693.22;5093469;28;20028;-74
2021/10/19 08:52:46;;;;;;;34.85;18.85;;;;;;;14.83;100.00;101702.81;5092611;28;20380;-78
2021/10/19 08:55:12;;;;;;;30.90;17.48;;;;;;;14.86;100.00;101688.28;5093287;28;20031;-75
2021/10/19 08:57:37;;;;;;;34.35;17.10;;;;;;;14.87;100.00;101700.69;5092689;28;20020;-77
2021/10/19 09:00:04;;;;;;;29.73;17.45;;;;;;;14.88;100.00;101695.19;5093242;28;20515;-75
2021/10/19 09:02:45;;;;;;;30.52;17.15;;;;;;;14.93;100.00;101700.97;5092855;28;20097;-74
2021/10/19 09:05:13;;;;;;;28.27;17.52;;;;;;;14.96;100.00;101699.81;5093167;28;20028;-74
2021/10/19 09:07:39;;;;;;;34.33;17.65;;;;;;;14.96;100.00;101700.66;5092566;28;20020;-79
2021/10/19 09:10:16;;;;;;;33.08;19.02;;;;;;;14.95;100.00;101704.31;5075212;28;20481;-77
2021/10/19 09:13:12;;;;;;;35.17;19.17;;;;;;;15.01;100.00;101707.41;5092254;28;20024;-77
2021/10/19 09:15:40;;;;;;;34.83;19.17;;;;;;;15.03;100.00;101710.78;5071269;28;20089;-78
2021/10/19 09:18:25;;;;;;;34.88;20.45;;;;;;;15.06;100.00;101711.34;5092960;28;20028;-76
2021/10/19 09:20:53;;;;;;;38.58;21.02;;;;;;;15.08;100.00;101706.69;5090935;28;20055;-78
2021/10/19 09:23:21;;;;;;;35.55;20.48;;;;;;;15.12;100.00;101710.75;5092584;28;20036;-76
2021/10/19 09:25:49;;;;;;;32.45;19.10;;;;;;;15.20;100.00;101703.78;5092220;28;20107;-76
2021/10/19 09:28:17;;;;;;;30.77;18.80;;;;;;;15.28;100.00;101707.41;5092922;28;20106;-75
2021/10/19 09:30:50;;;;;;;31.02;18.42;;;;;;;15.34;100.00;101706.00;5073981;28;20353;-75
2021/10/19 09:33:18;;;;;;;33.80;18.40;;;;;;;15.42;100.00;101708.78;5092664;28;20054;-75
2021/10/19 09:35:47;;;;;;;26.42;16.65;;;;;;;15.45;100.00;101715.66;5092026;28;20402;-74
2021/10/19 09:38:12;;;;;;;27.75;16.48;;;;;;;15.43;100.00;101712.28;5093009;28;20024;-75
2021/10/19 09:40:41;;;;;;;28.92;17.67;;;;;;;15.45;100.00;101707.63;5074821;28;20463;-75
2021/10/19 09:43:10;;;;;;;24.08;16.35;;;;;;;15.48;100.00;101712.69;5092609;28;20028;-76
2021/10/19 09:45:38;;;;;;;22.65;15.60;;;;;;;15.53;100.00;101707.72;5092317;28;20024;-76
2021/10/19 09:48:05;;;;;;;27.13;15.88;;;;;;;15.54;100.00;101712.09;5073856;28;20329;-77
2021/10/19 09:50:31;;;;;;;31.08;16.63;;;;;;;15.60;100.00;101706.13;5092559;28;20186;-76
2021/10/19 09:52:57;;;;;;;22.63;14.98;;;;;;;15.67;100.00;101715.25;5092022;28;20115;-78
2021/10/19 09:55:23;;;;;;;23.60;14.55;;;;;;;15.74;100.00;101710.13;5092623;28;20472;-77
2021/10/19 09:57:51;;;;;;;18.15;12.70;;;;;;;15.79;100.00;101710.53;5091885;28;20050;-75
2021/10/19 10:00:18;;;;;;;19.10;13.45;;;;;;;15.80;100.00;101706.03;5092378;28;20081;-76
2021/10/19 10:02:44;;;;;;;18.63;12.48;;;;;;;15.82;100.00;101712.94;5091878;28;20032;-76
2021/10/19 10:05:10;;;;;;;17.95;12.13;;;;;;;15.81;100.00;101707.72;5096600;28;20028;-75
2021/10/19 10:07:39;;;;;;;18.75;12.25;;;;;;;15.80;100.00;101703.34;5096412;28;20020;-75
2021/10/19 10:10:05;;;;;;;18.60;12.80;;;;;;;15.80;100.00;101712.22;5095972;28;20537;-75
2021/10/19 10:12:33;;;;;;;19.33;13.23;;;;;;;15.81;100.00;101710.41;5096102;28;20024;-76
2021/10/19 10:14:58;;;;;;;23.67;13.98;;;;;;;15.79;100.00;101712.38;5095430;28;20545;-75
2021/10/19 10:17:24;;;;;;;21.83;13.45;;;;;;;15.78;100.00;101711.53;5096383;28;20028;-75
2021/10/19 10:19:50;;;;;;;19.77;13.23;;;;;;;15.79;100.00;101705.16;5095638;28;20067;-76
2021/10/19 10:22:28;;;;;;;21.05;13.63;;;;;;;15.78;100.00;101708.88;5096306;28;20134;-77
2021/10/19 10:25:08;;;;;;;21.23;13.27;;;;;;;15.79;100.00;101715.06;5095566;28;20020;-76
2021/10/19 10:27:34;;;;;;;17.75;13.15;;;;;;;15.78;100.00;101716.91;5096195;28;20181;-76
2021/10/19 10:29:59;;;;;;;21.83;14.82;;;;;;;15.77;100.00;101715.19;5095002;28;20027;-75
2021/10/19 10:32:30;;;;;;;23.42;15.52;;;;;;;15.78;100.00;101714.22;5096385;28;20448;-76
2021/10/19 10:35:31;;;;;;;24.85;16.25;;;;;;;15.86;100.00;101711.63;5095215;28;20020;-76
2021/10/19 10:37:57;;;;;;;20.92;14.82;;;;;;;15.92;100.00;101709.34;4993588;28;20038;-76
2021/10/19 10:40:30;;;;;;;24.10;15.20;;;;;;;15.93;100.00;101706.50;5074700;28;20036;-76
2021/10/19 10:42:58;;;;;;;19.33;12.35;;;;;;;15.96;100.00;101714.25;5095449;28;20020;-77
2021/10/19 10:45:34;;;;;;;17.83;12.15;;;;;;;15.94;100.00;101712.69;5096144;28;20031;-76
2021/10/19 10:48:01;;;;;;;17.67;11.75;;;;;;;15.93;100.00;101703.81;5095427;28;20027;-79
2021/10/19 10:50:29;;;;;;;18.58;11.13;;;;;;;15.88;100.00;101713.31;5095488;28;20062;-79
2021/10/19 10:53:05;;;;;;;22.88;13.27;;;;;;;15.84;100.00;101710.94;5095088;28;20070;-79
2021/10/19 10:55:39;;;;;;;21.80;12.90;;;;;;;15.88;100.00;101710.63;5095591;28;20028;-76
2021/10/19 10:58:05;;;;;;;19.73;11.95;;;;;;;15.91;100.00;101705.78;5095034;28;20024;-76